Time;durP1;ratioP1;P1;durP2;ratioP2;P2;SDS_P1;SDS_P2;PMS_P1;PMS_P2;Temp;Humidity;BMP_temperature;BMP_pressure;BME280_temperature;BME280_humidity;BME280_pressure;Samples;Min_cycle;Max_cycle;Signal;HPM_P1;HPM_P2
2023/01/20 00:02:30;;;;;;;21.03;10.07;;;2.30;99.90;;;;;;5225216;28;20856;-50
2023/01/20 00:05:00;;;;;;;14.60;9.83;;;2.30;99.90;;;;;;5224270;28;20649;-52
2023/01/20 00:07:33;;;;;;;25.47;11.97;;;2.20;99.90;;;;;;5226155;28;20205;-52
2023/01/20 00:10:05;;;;;;;19.40;10.87;;;2.30;99.90;;;;;;5224958;28;20249;-52
2023/01/20 00:12:35;;;;;;;19.30;11.43;;;2.20;99.90;;;;;;5222762;28;20433;-52
2023/01/20 00:15:08;;;;;;;17.80;11.10;;;2.20;99.90;;;;;;5222423;28;20444;-49
2023/01/20 00:17:39;;;;;;;18.63;11.10;;;2.20;99.90;;;;;;5225112;28;20183;-50
2023/01/20 00:20:11;;;;;;;27.93;12.53;;;2.40;99.90;;;;;;5223842;28;20453;-50
2023/01/20 00:22:42;;;;;;;17.20;10.63;;;2.30;99.90;;;;;;5224192;28;20682;-51
2023/01/20 00:25:13;;;;;;;17.50;12.00;;;2.30;99.90;;;;;;5223745;28;20437;-51
2023/01/20 00:27:43;;;;;;;18.40;11.40;;;2.30;99.90;;;;;;5226481;28;20183;-51
2023/01/20 00:30:14;;;;;;;27.27;11.40;;;2.30;99.90;;;;;;5222473;28;20268;-51
2023/01/20 00:32:45;;;;;;;18.83;11.70;;;2.20;99.90;;;;;;5226729;28;20273;-50
2023/01/20 00:35:15;;;;;;;15.80;9.27;;;2.10;99.90;;;;;;5224230;28;20178;-52
2023/01/20 00:37:46;;;;;;;19.03;10.77;;;2.10;99.90;;;;;;5224722;28;20190;-51
2023/01/20 00:40:17;;;;;;;17.10;10.20;;;2.10;99.90;;;;;;5225203;28;20219;-52
2023/01/20 00:42:47;;;;;;;20.20;11.47;;;2.10;99.90;;;;;;5225580;28;20179;-50
2023/01/20 00:45:18;;;;;;;27.70;12.13;;;2.10;99.90;;;;;;5224631;28;20175;-51
2023/01/20 00:47:49;;;;;;;17.37;11.40;;;2.10;99.90;;;;;;5225306;28;20190;-51
2023/01/20 00:50:19;;;;;;;15.87;9.90;;;2.20;99.90;;;;;;5223811;28;20268;-50
2023/01/20 00:55:25;;;;;;;24.17;12.17;;;2.10;99.90;;;;;;5236428;28;20209;-50
2023/01/20 00:57:56;;;;;;;16.80;10.80;;;2.20;99.90;;;;;;5220976;28;20424;-49
2023/01/20 01:00:27;;;;;;;18.40;11.30;;;2.20;99.90;;;;;;5230338;28;20201;-48
2023/01/20 01:02:57;;;;;;;21.00;11.17;;;2.40;99.90;;;;;;5227977;28;20186;-51
2023/01/20 01:05:28;;;;;;;19.97;11.20;;;2.10;99.90;;;;;;5233345;28;20181;-50
2023/01/20 01:07:59;;;;;;;27.47;10.33;;;2.10;99.90;;;;;;5242186;28;20472;-50
2023/01/20 01:10:30;;;;;;;32.10;11.97;;;2.10;99.90;;;;;;5223518;28;20301;-51
2023/01/20 01:13:02;;;;;;;17.60;10.30;;;2.00;99.90;;;;;;5223377;28;20709;-51
2023/01/20 01:15:33;;;;;;;19.47;11.47;;;2.00;99.90;;;;;;5240048;28;20433;-49
2023/01/20 01:18:04;;;;;;;28.77;10.40;;;2.10;99.90;;;;;;5208984;28;20419;-50
2023/01/20 01:20:38;;;;;;;20.97;9.77;;;2.00;99.90;;;;;;5221501;28;20217;-52
2023/01/20 01:23:08;;;;;;;28.00;11.40;;;2.00;99.90;;;;;;5231380;28;20867;-51
2023/01/20 01:25:39;;;;;;;20.10;10.40;;;2.00;99.90;;;;;;5219458;28;20444;-49
2023/01/20 01:28:09;;;;;;;21.33;10.93;;;2.00;99.90;;;;;;5229323;28;20191;-50
2023/01/20 01:30:40;;;;;;;20.17;11.90;;;2.00;99.90;;;;;;5234463;28;20210;-50
2023/01/20 01:33:11;;;;;;;38.97;11.30;;;1.90;99.90;;;;;;5222954;28;20696;-48
2023/01/20 01:35:41;;;;;;;18.73;10.80;;;2.00;99.90;;;;;;5248302;28;20185;-49
2023/01/20 01:38:12;;;;;;;20.50;11.07;;;2.00;99.90;;;;;;5240134;28;20211;-49
2023/01/20 01:40:48;;;;;;;26.77;10.90;;;1.90;99.90;;;;;;5240633;28;20516;-48
2023/01/20 01:43:37;;;;;;;15.77;11.27;;;1.90;99.90;;;;;;5222866;28;20206;-49
2023/01/20 01:46:08;;;;;;;18.63;10.83;;;1.90;99.90;;;;;;5220181;28;20963;-50
2023/01/20 01:48:44;;;;;;;16.00;10.50;;;1.80;99.90;;;;;;5212312;28;20547;-49
2023/01/20 01:51:21;;;;;;;19.97;10.23;;;1.90;99.90;;;;;;5239571;28;20275;-49
2023/01/20 01:53:58;;;;;;;20.27;10.90;;;1.70;99.90;;;;;;5225898;28;20483;-51
2023/01/20 01:56:29;;;;;;;18.87;11.07;;;1.70;99.90;;;;;;5224104;28;20436;-49
2023/01/20 01:59:02;;;;;;;18.17;9.97;;;1.60;99.90;;;;;;5240654;28;20935;-50
2023/01/20 02:01:35;;;;;;;13.10;9.40;;;1.50;99.90;;;;;;5232555;28;20479;-49
2023/01/20 02:04:10;;;;;;;26.97;10.77;;;1.40;99.90;;;;;;5243941;28;20480;-51
2023/01/20 02:06:45;;;;;;;25.67;11.40;;;1.30;99.90;;;;;;5212338;28;20535;-50
2023/01/20 02:09:17;;;;;;;18.90;10.70;;;1.30;99.90;;;;;;5227256;28;20845;-51
2023/01/20 02:11:51;;;;;;;18.33;9.60;;;1.30;99.90;;;;;;5223939;28;20496;-49
2023/01/20 02:14:28;;;;;;;18.20;10.13;;;1.30;99.90;;;;;;5226822;28;20448;-50
2023/01/20 02:17:03;;;;;;;17.67;9.87;;;1.20;99.90;;;;;;5239531;28;20427;-48
2023/01/20 02:20:12;;;;;;;18.33;9.97;;;1.20;99.90;;;;;;5227974;28;21084;-50
2023/01/20 02:23:06;;;;;;;16.50;9.47;;;1.20;99.90;;;;;;5247834;28;20432;-53
2023/01/20 02:25:40;;;;;;;18.50;9.17;;;1.20;99.90;;;;;;5228635;28;20463;-50
2023/01/20 02:28:28;;;;;;;16.53;9.77;;;1.20;99.90;;;;;;5228345;28;20447;-50
2023/01/20 02:31:02;;;;;;;19.60;10.90;;;1.20;99.90;;;;;;5246430;28;20469;-50
2023/01/20 02:33:44;;;;;;;21.27;10.70;;;1.30;99.90;;;;;;5243424;28;20554;-51
2023/01/20 02:36:25;;;;;;;22.50;10.90;;;1.30;99.90;;;;;;5229343;28;20788;-49
2023/01/20 02:39:05;;;;;;;17.43;10.13;;;1.30;99.90;;;;;;5231181;28;20511;-51
2023/01/20 02:41:40;;;;;;;21.13;12.47;;;1.40;99.90;;;;;;5234697;28;20438;-49
2023/01/20 02:44:37;;;;;;;13.60;9.70;;;1.40;99.90;;;;;;5231173;28;21061;-49
2023/01/20 02:47:28;;;;;;;15.77;9.33;;;1.60;99.90;;;;;;5235050;28;20519;-50
2023/01/20 02:50:09;;;;;;;14.83;9.67;;;1.50;99.90;;;;;;5220846;28;20461;-49
2023/01/20 02:52:52;;;;;;;18.60;10.50;;;1.60;99.90;;;;;;5238178;28;20474;-52
2023/01/20 02:55:33;;;;;;;14.27;9.60;;;1.60;99.90;;;;;;5235264;28;20440;-55
2023/01/20 02:58:09;;;;;;;17.43;10.07;;;1.50;99.90;;;;;;5221421;28;20425;-50
2023/01/20 03:00:45;;;;;;;26.87;12.17;;;1.50;99.90;;;;;;5200133;28;20428;-52
2023/01/20 03:03:22;;;;;;;15.77;10.57;;;1.50;99.90;;;;;;5220217;28;20453;-49
2023/01/20 03:05:58;;;;;;;21.00;11.70;;;1.50;99.90;;;;;;5238160;28;20441;-49
2023/01/20 03:08:31;;;;;;;22.47;11.73;;;1.50;99.90;;;;;;5242065;28;20440;-49
2023/01/20 03:11:05;;;;;;;18.43;11.23;;;1.50;99.90;;;;;;5240361;28;20448;-49
2023/01/20 03:13:58;;;;;;;19.93;9.90;;;1.60;99.90;;;;;;5244940;28;20492;-49
2023/01/20 03:16:29;;;;;;;16.60;10.00;;;1.50;99.90;;;;;;5227734;28;20425;-49
2023/01/20 03:19:00;;;;;;;12.73;9.10;;;1.50;99.90;;;;;;5239257;28;20466;-49
2023/01/20 03:21:33;;;;;;;18.90;9.20;;;1.60;99.90;;;;;;5208993;28;20529;-53
2023/01/20 03:24:04;;;;;;;19.10;11.60;;;1.50;99.90;;;;;;5226663;28;20565;-50
2023/01/20 03:26:35;;;;;;;18.80;11.40;;;1.60;99.90;;;;;;5236762;28;20442;-49
2023/01/20 03:29:10;;;;;;;19.47;10.73;;;1.60;99.90;;;;;;5225271;28;20516;-49
2023/01/20 03:32:03;;;;;;;17.63;10.07;;;1.60;99.90;;;;;;5223838;28;20890;-51
2023/01/20 03:34:37;;;;;;;17.03;11.03;;;1.60;99.90;;;;;;5223752;28;20440;-50
2023/01/20 03:37:10;;;;;;;27.77;12.20;;;1.60;99.90;;;;;;5235983;28;20789;-49
2023/01/20 03:39:41;;;;;;;25.00;11.47;;;1.60;99.90;;;;;;5239826;28;20416;-51
2023/01/20 03:42:15;;;;;;;25.20;13.10;;;1.60;99.90;;;;;;5226647;28;20808;-50
2023/01/20 03:45:07;;;;;;;25.67;12.93;;;1.60;99.90;;;;;;5233068;28;20336;-51
2023/01/20 03:47:38;;;;;;;22.23;12.47;;;1.60;99.90;;;;;;5220082;28;20443;-50
2023/01/20 03:50:22;;;;;;;20.27;12.23;;;1.60;99.90;;;;;;5223090;28;20436;-49
2023/01/20 03:53:24;;;;;;;24.20;13.00;;;1.70;99.90;;;;;;5234213;28;20531;-50
2023/01/20 03:56:13;;;;;;;25.13;13.73;;;1.70;99.90;;;;;;5209574;28;20444;-50
2023/01/20 03:58:47;;;;;;;22.43;12.43;;;1.70;99.90;;;;;;5241279;28;20429;-49
2023/01/20 04:01:22;;;;;;;21.20;11.80;;;1.60;99.90;;;;;;5231404;28;20436;-49
2023/01/20 04:03:53;;;;;;;17.70;11.57;;;1.60;99.90;;;;;;5235747;28;20519;-51
2023/01/20 04:06:27;;;;;;;25.67;14.30;;;1.70;99.90;;;;;;5238893;28;20464;-50
2023/01/20 04:09:02;;;;;;;26.70;13.23;;;1.60;99.90;;;;;;5217800;28;20790;-52
2023/01/20 04:11:33;;;;;;;24.90;13.97;;;1.50;99.90;;;;;;5230955;28;21099;-49
2023/01/20 04:14:06;;;;;;;23.57;13.93;;;1.50;99.90;;;;;;5221241;28;20470;-50
2023/01/20 04:16:37;;;;;;;24.90;12.30;;;1.50;99.90;;;;;;5200577;28;20437;-51
2023/01/20 04:19:08;;;;;;;23.50;13.87;;;1.50;99.90;;;;;;5216369;28;20561;-52
2023/01/20 04:21:43;;;;;;;25.60;14.07;;;1.50;99.90;;;;;;5241136;28;20224;-53
2023/01/20 04:24:15;;;;;;;27.90;14.40;;;1.50;99.90;;;;;;5218760;28;20214;-50
2023/01/20 04:26:46;;;;;;;38.03;15.50;;;1.50;99.90;;;;;;5234246;28;20429;-51
2023/01/20 04:29:16;;;;;;;24.23;14.70;;;1.60;99.90;;;;;;5236240;28;20485;-49
2023/01/20 04:31:47;;;;;;;36.23;14.67;;;1.50;99.90;;;;;;5220762;28;20301;-51
2023/01/20 04:34:18;;;;;;;27.50;15.33;;;1.50;99.90;;;;;;5236021;28;20207;-49
2023/01/20 04:36:48;;;;;;;30.23;16.30;;;1.50;99.90;;;;;;5238445;28;20191;-50
2023/01/20 04:39:19;;;;;;;22.23;13.80;;;1.40;99.90;;;;;;5241856;28;20645;-50
2023/01/20 04:41:50;;;;;;;30.00;14.97;;;1.40;99.90;;;;;;5239568;28;20265;-49
2023/01/20 04:44:21;;;;;;;39.23;16.33;;;1.40;99.90;;;;;;5236999;28;20638;-51
2023/01/20 04:46:58;;;;;;;29.83;15.83;;;1.40;99.90;;;;;;5239424;28;20649;-52
2023/01/20 04:49:29;;;;;;;31.40;15.50;;;1.40;99.90;;;;;;5241724;28;20190;-49
2023/01/20 04:51:59;;;;;;;28.10;16.30;;;1.50;99.90;;;;;;5230821;28;20463;-51
2023/01/20 04:54:30;;;;;;;27.80;15.17;;;1.50;99.90;;;;;;5238799;28;20217;-48
2023/01/20 04:57:00;;;;;;;29.57;16.23;;;1.50;99.90;;;;;;5243763;28;20654;-52
2023/01/20 04:59:31;;;;;;;32.53;16.93;;;1.50;99.90;;;;;;5238996;28;20201;-51
2023/01/20 05:02:02;;;;;;;34.43;18.30;;;1.50;99.90;;;;;;5241424;28;20182;-51
2023/01/20 05:04:32;;;;;;;26.90;17.13;;;1.50;99.90;;;;;;5240137;28;20210;-50
2023/01/20 05:07:03;;;;;;;27.50;17.03;;;1.50;99.90;;;;;;5223670;28;20668;-50
2023/01/20 05:09:34;;;;;;;36.93;17.23;;;1.50;99.90;;;;;;5226916;28;20191;-49
2023/01/20 05:12:05;;;;;;;30.47;18.30;;;1.50;99.90;;;;;;5224921;28;20241;-49
2023/01/20 05:14:35;;;;;;;37.97;18.63;;;1.50;99.90;;;;;;5243728;28;20293;-50
2023/01/20 05:17:06;;;;;;;37.07;17.30;;;1.60;99.90;;;;;;5240457;28;20704;-50
2023/01/20 05:19:36;;;;;;;32.67;19.87;;;1.60;99.90;;;;;;5224078;28;20193;-50
2023/01/20 05:22:07;;;;;;;40.90;18.30;;;1.60;99.90;;;;;;5242250;28;20255;-51
2023/01/20 05:24:38;;;;;;;27.80;16.90;;;1.50;99.90;;;;;;5228496;28;20213;-49
2023/01/20 05:27:08;;;;;;;33.50;18.00;;;1.50;99.90;;;;;;5242432;28;20186;-49
2023/01/20 05:29:39;;;;;;;32.53;17.90;;;1.50;99.90;;;;;;5225929;28;20906;-49
2023/01/20 05:32:10;;;;;;;39.17;18.13;;;1.50;99.90;;;;;;5230511;28;20233;-48
2023/01/20 05:34:40;;;;;;;42.57;19.83;;;1.50;99.90;;;;;;5219418;28;20199;-54
2023/01/20 05:37:11;;;;;;;36.80;19.80;;;1.50;99.90;;;;;;5205917;28;20677;-48
2023/01/20 05:39:41;;;;;;;35.57;18.60;;;1.50;99.90;;;;;;5196875;28;20190;-51
2023/01/20 05:42:12;;;;;;;35.60;20.17;;;1.50;99.90;;;;;;5215058;28;20191;-51
2023/01/20 05:44:43;;;;;;;43.00;21.17;;;1.50;99.90;;;;;;5233746;28;20275;-50
2023/01/20 05:47:13;;;;;;;31.20;17.97;;;1.50;99.90;;;;;;5234386;28;20225;-54
2023/01/20 05:49:44;;;;;;;29.30;16.30;;;1.40;99.90;;;;;;5229037;28;20636;-49
2023/01/20 05:52:15;;;;;;;35.40;20.30;;;1.40;99.90;;;;;;5209273;28;20217;-50
2023/01/20 05:54:45;;;;;;;41.90;20.47;;;1.40;99.90;;;;;;5221963;28;20218;-50
2023/01/20 05:57:17;;;;;;;33.00;19.37;;;1.30;99.90;;;;;;5236893;28;20267;-50
2023/01/20 05:59:48;;;;;;;34.90;19.63;;;1.30;99.90;;;;;;5228909;28;20270;-49
2023/01/20 06:02:19;;;;;;;45.07;21.27;;;1.40;99.90;;;;;;5224425;28;20443;-50
2023/01/20 06:04:49;;;;;;;36.50;18.50;;;1.40;99.90;;;;;;5221008;28;20989;-49
2023/01/20 06:07:20;;;;;;;34.53;19.30;;;1.30;99.90;;;;;;5233967;28;20588;-50
2023/01/20 06:09:50;;;;;;;34.37;19.07;;;1.30;99.90;;;;;;5227778;28;20186;-50
2023/01/20 06:12:22;;;;;;;38.30;17.87;;;1.30;99.90;;;;;;5233190;28;20656;-51
2023/01/20 06:14:52;;;;;;;29.90;18.90;;;1.40;99.90;;;;;;5237536;28;20286;-50
2023/01/20 06:17:23;;;;;;;38.37;21.77;;;1.20;99.90;;;;;;5218647;28;20523;-50
2023/01/20 06:19:54;;;;;;;36.87;21.10;;;1.30;99.90;;;;;;5224142;28;20189;-51
2023/01/20 06:22:25;;;;;;;34.33;20.57;;;1.20;99.90;;;;;;5243608;28;21751;-49
2023/01/20 06:24:55;;;;;;;36.80;21.33;;;1.10;99.90;;;;;;5228034;28;20210;-50
2023/01/20 06:27:26;;;;;;;41.23;21.20;;;1.10;99.90;;;;;;5238468;28;20535;-49
2023/01/20 06:29:57;;;;;;;39.80;21.87;;;1.00;99.90;;;;;;5243670;28;20257;-49
2023/01/20 06:32:27;;;;;;;41.00;21.90;;;1.20;99.90;;;;;;5225578;28;20649;-50
2023/01/20 06:34:58;;;;;;;43.53;22.30;;;1.10;99.90;;;;;;5241386;28;20252;-49
2023/01/20 06:37:28;;;;;;;37.10;21.63;;;1.00;99.90;;;;;;5242129;28;20567;-49
2023/01/20 06:39:59;;;;;;;46.93;24.27;;;1.00;99.90;;;;;;5248822;28;20174;-49
2023/01/20 06:42:45;;;;;;;54.90;25.67;;;1.20;99.90;;;;;;5203198;28;20600;-49
2023/01/20 06:45:16;;;;;;;46.20;24.93;;;1.20;99.90;;;;;;5235300;28;20428;-50
2023/01/20 06:47:49;;;;;;;47.73;23.00;;;1.20;99.90;;;;;;5240637;28;20184;-50
2023/01/20 06:50:20;;;;;;;45.97;24.53;;;1.10;99.90;;;;;;5223401;28;20472;-52
2023/01/20 06:52:52;;;;;;;43.70;25.20;;;1.10;99.90;;;;;;5232150;28;20421;-51
2023/01/20 06:55:23;;;;;;;43.70;24.60;;;1.10;99.90;;;;;;5266759;22;20309;-49
2023/01/20 06:57:54;;;;;;;38.60;21.97;;;1.10;99.90;;;;;;5226860;28;20883;-48
2023/01/20 07:00:24;;;;;;;39.17;21.50;;;1.20;99.90;;;;;;5225924;28;20199;-48
2023/01/20 07:02:55;;;;;;;37.83;21.70;;;1.10;99.90;;;;;;5242718;28;20197;-49
2023/01/20 07:05:26;;;;;;;40.47;22.33;;;1.10;99.90;;;;;;5217609;28;20210;-47
2023/01/20 07:07:56;;;;;;;40.73;20.87;;;1.10;99.90;;;;;;5224559;28;20183;-50
2023/01/20 07:10:27;;;;;;;49.67;22.47;;;1.10;99.90;;;;;;5218557;28;20239;-48
2023/01/20 07:12:57;;;;;;;51.10;22.27;;;1.10;99.90;;;;;;5224624;28;20186;-50
2023/01/20 07:15:28;;;;;;;36.90;22.07;;;1.10;99.90;;;;;;5218786;28;20257;-49
2023/01/20 07:17:59;;;;;;;47.87;20.67;;;1.10;99.90;;;;;;5206247;28;20239;-49
2023/01/20 07:20:29;;;;;;;40.60;22.50;;;1.00;99.90;;;;;;5199014;28;20193;-48
2023/01/20 07:23:01;;;;;;;37.33;20.90;;;1.00;99.90;;;;;;5219207;28;20207;-49
2023/01/20 07:25:32;;;;;;;38.50;22.37;;;0.90;99.90;;;;;;5224566;28;20598;-49
2023/01/20 07:28:03;;;;;;;54.17;22.70;;;0.90;99.90;;;;;;5216680;28;20459;-48
2023/01/20 07:30:34;;;;;;;43.40;21.00;;;0.90;99.90;;;;;;5214434;28;20480;-48
2023/01/20 07:33:05;;;;;;;50.77;21.47;;;0.90;99.90;;;;;;5208390;28;20437;-48
2023/01/20 07:35:35;;;;;;;50.00;22.87;;;0.90;99.90;;;;;;5222286;28;20245;-49
2023/01/20 07:38:06;;;;;;;39.50;21.57;;;0.90;99.90;;;;;;5214531;28;20187;-50
2023/01/20 07:40:37;;;;;;;44.93;22.57;;;0.80;99.90;;;;;;5216955;28;20183;-46
2023/01/20 07:43:07;;;;;;;51.37;21.97;;;1.00;99.90;;;;;;5212130;28;20191;-49
2023/01/20 07:45:38;;;;;;;56.40;22.90;;;0.90;99.90;;;;;;5213017;28;20201;-48
2023/01/20 07:48:09;;;;;;;49.43;22.83;;;1.00;99.90;;;;;;5215733;28;20243;-45
2023/01/20 07:50:40;;;;;;;43.60;21.13;;;1.00;99.90;;;;;;5217893;28;20488;-49
2023/01/20 07:53:10;;;;;;;48.17;22.80;;;1.00;99.90;;;;;;5216439;28;20182;-49
2023/01/20 07:55:41;;;;;;;35.90;21.63;;;1.10;99.90;;;;;;5221480;28;20202;-48
2023/01/20 07:58:11;;;;;;;39.90;21.90;;;1.00;99.90;;;;;;5198372;28;20183;-48
2023/01/20 08:00:42;;;;;;;40.37;22.07;;;0.90;99.90;;;;;;5220634;28;20618;-48
2023/01/20 08:03:14;;;;;;;40.63;23.10;;;0.90;99.90;;;;;;5217520;28;20201;-48
2023/01/20 08:05:44;;;;;;;44.87;21.97;;;1.00;99.90;;;;;;5204135;28;20253;-48
2023/01/20 08:08:15;;;;;;;46.40;23.33;;;1.00;99.90;;;;;;5208411;28;20441;-50
2023/01/20 08:10:52;;;;;;;40.73;20.00;;;1.00;99.90;;;;;;5218472;28;20213;-50
2023/01/20 08:13:24;;;;;;;39.63;20.07;;;1.10;99.90;;;;;;5228002;28;20201;-50
2023/01/20 08:15:58;;;;;;;45.23;22.63;;;1.00;99.90;;;;;;5223298;28;20440;-49
2023/01/20 08:18:29;;;;;;;46.60;21.17;;;1.10;99.90;;;;;;5217905;28;20488;-50
2023/01/20 08:21:05;;;;;;;34.67;19.83;;;1.20;99.90;;;;;;5214087;28;20432;-50
2023/01/20 08:23:36;;;;;;;40.80;20.00;;;1.30;99.90;;;;;;5223644;28;20460;-47
2023/01/20 08:26:06;;;;;;;37.47;20.83;;;1.20;99.90;;;;;;5218149;28;20790;-50
2023/01/20 08:28:37;;;;;;;44.03;21.27;;;1.30;99.90;;;;;;5223304;28;20413;-49
2023/01/20 08:31:13;;;;;;;39.33;20.10;;;1.30;99.90;;;;;;5223998;28;20215;-50
2023/01/20 08:33:45;;;;;;;46.73;22.23;;;1.20;99.90;;;;;;5213965;28;20205;-49
2023/01/20 08:36:20;;;;;;;43.27;20.97;;;1.40;99.90;;;;;;5220025;28;20473;-50
2023/01/20 08:38:50;;;;;;;48.57;21.87;;;1.30;99.90;;;;;;5221033;28;20802;-48
2023/01/20 08:41:29;;;;;;;47.20;21.53;;;1.40;99.90;;;;;;5206960;28;20454;-48
2023/01/20 08:44:01;;;;;;;50.30;22.27;;;1.50;99.90;;;;;;5215625;28;20211;-49
2023/01/20 08:46:32;;;;;;;39.17;21.03;;;1.60;99.90;;;;;;5214429;28;20789;-47
2023/01/20 08:49:07;;;;;;;44.87;22.07;;;1.60;99.90;;;;;;5217723;28;20449;-47
2023/01/20 08:51:38;;;;;;;42.63;22.63;;;1.60;99.90;;;;;;5210463;28;21063;-47
2023/01/20 08:54:09;;;;;;;43.57;24.13;;;1.60;99.90;;;;;;5208732;28;20503;-48
2023/01/20 08:56:40;;;;;;;45.33;21.93;;;1.60;99.90;;;;;;5211861;28;20676;-50
2023/01/20 08:59:11;;;;;;;45.63;24.47;;;1.60;99.90;;;;;;5215964;28;21350;-49
2023/01/20 09:01:42;;;;;;;43.70;22.43;;;1.60;99.90;;;;;;5216991;28;20225;-50
2023/01/20 09:04:13;;;;;;;54.43;23.77;;;1.60;99.90;;;;;;5219871;28;20591;-49
2023/01/20 09:06:48;;;;;;;42.40;21.87;;;1.50;99.90;;;;;;5220362;28;20445;-49
2023/01/20 09:09:21;;;;;;;40.57;22.40;;;1.50;99.90;;;;;;5215535;28;20216;-49
2023/01/20 09:11:52;;;;;;;48.20;22.87;;;1.60;99.90;;;;;;5213221;28;20497;-48
2023/01/20 09:14:24;;;;;;;46.07;21.47;;;1.60;99.90;;;;;;5204508;28;20541;-48
2023/01/20 09:16:55;;;;;;;42.83;23.83;;;1.40;99.90;;;;;;5186368;28;20215;-51
2023/01/20 09:19:25;;;;;;;52.40;23.00;;;1.60;99.90;;;;;;5206614;28;20485;-49
2023/01/20 09:21:56;;;;;;;37.50;20.43;;;1.60;99.90;;;;;;5219210;28;20194;-51
2023/01/20 09:24:27;;;;;;;47.50;24.77;;;1.60;99.90;;;;;;5209608;28;20215;-49
2023/01/20 09:26:57;;;;;;;43.93;22.50;;;1.60;99.90;;;;;;5220304;28;20855;-50
2023/01/20 09:29:28;;;;;;;34.67;20.30;;;1.70;99.90;;;;;;5218070;28;20215;-50
2023/01/20 09:31:59;;;;;;;35.27;19.73;;;1.80;99.90;;;;;;5209421;28;20292;-49
2023/01/20 09:34:30;;;;;;;44.00;18.43;;;1.70;99.90;;;;;;5220494;28;20225;-47
2023/01/20 09:43:52;;;;;;;35.70;19.03;;;1.90;99.90;;;;;;5212310;28;20270;-49
2023/01/20 09:46:07;;;;;;;33.77;17.20;;;1.60;99.90;;;;;;5218552;28;20516;-47
2023/01/20 09:55:21;;;;;;;47.80;21.40;;;1.60;99.90;;;;;;5219823;28;20483;-49
2023/01/20 09:58:06;;;;;;;33.83;18.73;;;1.50;99.90;;;;;;5223456;28;20520;-49
2023/01/20 10:00:39;;;;;;;40.93;19.40;;;1.50;99.90;;;;;;5216406;28;20848;-50
2023/01/20 10:03:38;;;;;;;43.27;20.17;;;1.50;99.90;;;;;;5220064;28;20445;-49
2023/01/20 10:06:18;;;;;;;37.73;19.00;;;1.60;99.90;;;;;;5224632;28;20432;-47
2023/01/20 10:09:12;;;;;;;37.17;18.83;;;1.80;99.90;;;;;;5225493;28;20443;-49
2023/01/20 10:11:47;;;;;;;34.23;17.70;;;1.90;99.90;;;;;;5216412;28;20883;-49
2023/01/20 10:14:33;;;;;;;35.40;18.10;;;1.90;99.90;;;;;;5217629;28;20460;-50
2023/01/20 10:17:13;;;;;;;30.93;18.07;;;1.90;99.90;;;;;;5216153;28;20500;-47
2023/01/20 10:19:55;;;;;;;43.63;18.97;;;1.90;99.90;;;;;;5227485;28;20413;-49
2023/01/20 10:22:31;;;;;;;44.70;22.03;;;1.90;99.90;;;;;;5226223;28;20437;-49
2023/01/20 10:25:08;;;;;;;56.30;22.40;;;1.90;99.90;;;;;;5226387;28;20540;-50
2023/01/20 10:27:45;;;;;;;33.40;17.97;;;1.80;99.90;;;;;;5222383;28;21017;-47
2023/01/20 10:30:17;;;;;;;64.40;28.63;;;2.00;99.90;;;;;;5223700;28;20445;-49
2023/01/20 10:33:01;;;;;;;41.37;19.77;;;2.00;99.90;;;;;;5224629;28;20482;-49
2023/01/20 10:35:37;;;;;;;33.83;18.83;;;2.00;99.90;;;;;;5220222;28;20468;-49
2023/01/20 10:38:18;;;;;;;37.40;19.20;;;1.90;99.90;;;;;;5213009;28;20469;-50
2023/01/20 10:40:56;;;;;;;40.00;19.97;;;2.00;99.90;;;;;;5222107;28;20427;-47
2023/01/20 10:43:26;;;;;;;45.77;18.60;;;2.10;99.90;;;;;;5204627;28;20475;-47
2023/01/20 10:46:08;;;;;;;49.70;19.60;;;2.30;99.90;;;;;;5216947;28;20445;-48
2023/01/20 10:48:58;;;;;;;30.00;17.53;;;2.20;99.90;;;;;;5219793;28;20179;-49
2023/01/20 10:51:43;;;;;;;32.67;18.77;;;2.30;99.90;;;;;;5209008;28;20465;-50
2023/01/20 10:54:49;;;;;;;50.93;20.30;;;2.30;99.90;;;;;;5214919;28;20495;-48
2023/01/20 10:57:21;;;;;;;37.30;20.83;;;2.50;99.90;;;;;;5214020;28;20441;-49
2023/01/20 10:59:59;;;;;;;47.33;19.60;;;2.40;99.90;;;;;;5197114;28;20442;-48
2023/01/20 11:02:33;;;;;;;38.97;19.33;;;2.30;99.90;;;;;;5213428;28;20440;-49
2023/01/20 11:05:21;;;;;;;41.70;18.70;;;2.10;99.90;;;;;;5221150;28;20519;-48
2023/01/20 11:07:53;;;;;;;31.50;19.37;;;2.00;99.90;;;;;;5217986;28;21135;-45
2023/01/20 11:10:26;;;;;;;34.33;18.30;;;2.00;99.90;;;;;;5222339;28;20464;-48
2023/01/20 11:12:59;;;;;;;41.80;20.60;;;2.00;99.90;;;;;;5210973;28;20446;-47
2023/01/20 11:15:34;;;;;;;36.20;18.80;;;1.90;99.90;;;;;;5216751;28;20457;-50
2023/01/20 11:18:14;;;;;;;46.00;22.80;;;2.10;99.90;;;;;;5215105;28;20466;-47
2023/01/20 11:20:49;;;;;;;34.87;19.63;;;2.10;99.90;;;;;;5217905;28;20483;-49
2023/01/20 11:23:56;;;;;;;42.73;20.53;;;2.10;99.90;;;;;;5208837;28;20485;-47
2023/01/20 11:26:35;;;;;;;31.50;19.43;;;2.10;99.90;;;;;;5209838;28;20429;-49
2023/01/20 11:29:09;;;;;;;50.90;21.73;;;2.10;99.90;;;;;;5216810;28;20441;-50
2023/01/20 11:31:40;;;;;;;49.40;20.80;;;2.20;99.90;;;;;;5218727;28;20518;-48
2023/01/20 11:34:31;;;;;;;41.73;21.73;;;2.30;99.90;;;;;;5205763;28;20477;-50
2023/01/20 11:37:05;;;;;;;38.97;19.90;;;2.40;99.90;;;;;;5217191;28;20582;-50
2023/01/20 11:39:59;;;;;;;41.00;20.63;;;2.50;99.90;;;;;;5205998;28;20803;-48
2023/01/20 11:42:40;;;;;;;42.07;20.17;;;2.50;99.90;;;;;;5219482;28;20862;-48
2023/01/20 11:45:33;;;;;;;37.97;20.77;;;2.50;99.90;;;;;;5204623;28;20460;-48
2023/01/20 11:48:13;;;;;;;41.70;21.50;;;2.50;99.90;;;;;;5214804;28;20460;-48
2023/01/20 11:50:56;;;;;;;41.33;20.57;;;2.60;99.90;;;;;;5217069;28;20465;-50
2023/01/20 11:53:31;;;;;;;41.77;22.03;;;2.70;99.90;;;;;;5216922;28;20524;-50
2023/01/20 11:56:13;;;;;;;46.33;21.30;;;2.50;99.90;;;;;;5220389;28;20441;-47
2023/01/20 11:59:00;;;;;;;36.97;19.30;;;2.30;99.90;;;;;;5230915;28;20433;-48
2023/01/20 12:01:51;;;;;;;39.90;21.77;;;2.60;99.90;;;;;;5223272;28;20441;-49
2023/01/20 12:04:34;;;;;;;43.50;21.97;;;2.60;99.90;;;;;;5198066;28;20452;-46
2023/01/20 12:07:11;;;;;;;40.57;21.33;;;2.70;99.90;;;;;;5209174;28;20524;-45
2023/01/20 12:09:48;;;;;;;47.80;23.70;;;2.90;99.90;;;;;;5223699;28;20916;-48
2023/01/20 12:12:34;;;;;;;56.60;25.70;;;2.80;99.90;;;;;;5224718;28;20532;-49
2023/01/20 12:15:25;;;;;;;50.67;24.50;;;2.90;99.90;;;;;;5203588;28;20464;-48
2023/01/20 12:18:15;;;;;;;36.07;22.23;;;2.80;99.90;;;;;;5223190;28;20972;-48
2023/01/20 12:20:57;;;;;;;54.00;27.10;;;2.90;99.90;;;;;;5219632;28;20545;-49
2023/01/20 12:23:54;;;;;;;51.03;26.53;;;2.80;99.90;;;;;;5208111;28;20449;-47
2023/01/20 12:26:27;;;;;;;65.40;26.63;;;2.70;99.90;;;;;;5223580;28;20454;-46
2023/01/20 12:29:24;;;;;;;47.77;22.70;;;2.50;99.90;;;;;;5218198;28;20525;-47
2023/01/20 12:31:55;;;;;;;52.40;24.07;;;2.40;99.90;;;;;;5203825;28;20473;-50
2023/01/20 12:34:28;;;;;;;37.30;21.50;;;2.50;99.90;;;;;;5209296;28;20465;-45
2023/01/20 12:37:08;;;;;;;47.70;24.97;;;2.40;99.90;;;;;;5209698;28;20266;-51
2023/01/20 12:40:02;;;;;;;61.27;29.60;;;2.40;99.90;;;;;;5216262;28;20436;-46
2023/01/20 12:43:00;;;;;;;37.83;22.50;;;2.40;99.90;;;;;;5209578;28;20473;-46
2023/01/20 12:45:34;;;;;;;39.83;20.30;;;2.50;99.90;;;;;;5214601;28;20818;-45
2023/01/20 12:48:19;;;;;;;35.27;20.00;;;2.70;99.90;;;;;;5204802;28;20481;-47
2023/01/20 12:51:02;;;;;;;35.93;20.50;;;2.70;99.90;;;;;;5197668;28;20838;-46
2023/01/20 12:53:41;;;;;;;35.50;19.37;;;2.80;99.90;;;;;;5214309;28;20453;-48
2023/01/20 12:56:33;;;;;;;42.30;21.00;;;2.80;99.90;;;;;;5209983;28;20521;-52
2023/01/20 12:59:36;;;;;;;53.57;24.57;;;2.80;99.90;;;;;;5215645;28;20525;-47
2023/01/20 13:02:22;;;;;;;33.73;19.07;;;2.80;99.90;;;;;;5214308;28;20441;-52
2023/01/20 13:05:15;;;;;;;34.40;18.63;;;2.90;99.90;;;;;;5203948;28;20480;-49
2023/01/20 13:07:58;;;;;;;26.77;14.93;;;2.90;99.90;;;;;;5212893;28;20433;-47
2023/01/20 13:10:44;;;;;;;28.77;17.33;;;2.70;99.90;;;;;;5222482;28;20528;-52
2023/01/20 13:13:35;;;;;;;59.10;21.90;;;2.70;99.90;;;;;;5213757;28;20433;-47
2023/01/20 13:16:16;;;;;;;34.53;18.93;;;2.60;99.90;;;;;;5218693;28;20502;-50
2023/01/20 13:19:23;;;;;;;33.70;16.97;;;2.80;99.90;;;;;;5219256;28;20452;-47
2023/01/20 13:21:54;;;;;;;33.33;17.30;;;2.60;99.90;;;;;;5219311;28;20531;-47
2023/01/20 13:24:28;;;;;;;32.97;20.20;;;2.60;99.90;;;;;;5217426;28;21502;-49
2023/01/20 13:27:00;;;;;;;41.03;21.30;;;2.50;99.90;;;;;;5198059;28;20433;-51
2023/01/20 13:29:41;;;;;;;38.20;19.67;;;2.60;99.90;;;;;;5216215;28;20448;-47
2023/01/20 13:32:25;;;;;;;32.90;19.40;;;2.60;99.90;;;;;;5221465;28;20468;-47
2023/01/20 13:34:57;;;;;;;47.83;22.53;;;2.70;99.90;;;;;;5218305;28;20474;-46
2023/01/20 13:37:37;;;;;;;49.93;22.63;;;2.70;99.90;;;;;;5203798;28;20426;-47